createdAt,value
2018-05-26T00:00:09.800Z,5.57
2018-05-26T00:02:39.381Z,5.60
2018-05-26T00:05:08.931Z,6.20
2018-05-26T00:07:41.504Z,6.37
2018-05-26T00:10:10.890Z,6.60
2018-05-26T00:12:40.460Z,7.23
2018-05-26T00:15:10.059Z,6.20
2018-05-26T00:17:39.628Z,7.57
2018-05-26T00:20:09.438Z,6.33
2018-05-26T00:22:38.535Z,5.80
2018-05-26T00:25:08.115Z,6.30
2018-05-26T00:27:37.438Z,6.23
2018-05-26T00:30:07.004Z,6.27
2018-05-26T00:32:36.633Z,6.30
2018-05-26T00:35:06.224Z,5.67
2018-05-26T00:37:35.771Z,6.13
2018-05-26T00:40:05.333Z,6.53
2018-05-26T00:42:34.965Z,6.37
2018-05-26T00:45:04.530Z,6.47
2018-05-26T00:47:34.142Z,6.23
2018-05-26T00:50:03.702Z,6.53
2018-05-26T00:52:33.266Z,6.17
2018-05-26T00:55:02.861Z,6.43
2018-05-26T00:57:32.411Z,6.63
2018-05-26T01:00:01.991Z,6.10
2018-05-26T01:02:31.344Z,7.07
2018-05-26T01:05:01.173Z,6.97
2018-05-26T01:07:30.735Z,6.90
2018-05-26T01:10:00.331Z,7.83
2018-05-26T01:12:29.897Z,7.50
2018-05-26T01:14:59.525Z,7.23
2018-05-26T01:17:29.099Z,7.20
2018-05-26T01:19:58.668Z,7.20
2018-05-26T01:22:28.224Z,7.53
2018-05-26T01:24:57.971Z,7.27
2018-05-26T01:27:27.523Z,7.90
2018-05-26T01:29:57.126Z,8.63
2018-05-26T01:32:26.766Z,7.43
2018-05-26T01:34:56.311Z,7.43
2018-05-26T01:37:25.621Z,8.63
2018-05-26T01:39:55.212Z,8.47
2018-05-26T01:42:24.780Z,8.37
2018-05-26T01:44:54.327Z,7.93
2018-05-26T01:47:23.890Z,8.30
2018-05-26T01:49:53.483Z,7.60
2018-05-26T01:52:23.050Z,8.63
2018-05-26T01:54:55.570Z,8.80
2018-05-26T01:57:25.150Z,8.33
2018-05-26T01:59:54.744Z,8.53
2018-05-26T02:02:24.303Z,8.27
2018-05-26T02:04:53.881Z,8.10
2018-05-26T02:07:23.431Z,8.17
2018-05-26T02:09:53.016Z,7.90
2018-05-26T02:12:22.590Z,8.37
2018-05-26T02:14:52.156Z,8.87
2018-05-26T02:17:21.729Z,7.73
2018-05-26T02:19:51.325Z,9.10
2018-05-26T02:22:20.900Z,8.10
2018-05-26T02:24:50.462Z,7.60
2018-05-26T02:27:20.023Z,7.83
2018-05-26T02:29:49.604Z,8.27
2018-05-26T02:32:19.358Z,7.80
2018-05-26T02:34:48.923Z,8.47
2018-05-26T02:37:18.488Z,7.93
2018-05-26T02:39:48.041Z,8.17
2018-05-26T02:42:17.723Z,8.00
2018-05-26T02:44:47.396Z,7.20
2018-05-26T02:47:16.972Z,7.70
2018-05-26T02:49:46.533Z,7.87
2018-05-26T02:52:16.097Z,22.50
2018-05-26T02:54:45.703Z,10.13
2018-05-26T02:57:15.327Z,8.63
2018-05-26T02:59:44.876Z,8.20
2018-05-26T03:02:14.442Z,8.20
2018-05-26T03:04:49.458Z,7.30
2018-05-26T03:07:24.677Z,8.87
2018-05-26T03:09:59.639Z,7.30
2018-05-26T03:12:34.538Z,8.33
2018-05-26T03:15:03.387Z,8.00
2018-05-26T03:17:47.616Z,7.90
2018-05-26T03:20:17.253Z,9.17
2018-05-26T03:22:46.811Z,7.77
2018-05-26T03:25:16.396Z,7.40
2018-05-26T03:27:45.979Z,8.90
2018-05-26T03:30:15.694Z,8.50
2018-05-26T03:32:45.320Z,8.03
2018-05-26T03:35:14.880Z,8.70
2018-05-26T03:37:44.431Z,7.23
2018-05-26T03:40:14.012Z,7.63
2018-05-26T03:42:43.562Z,9.77
2018-05-26T03:45:13.147Z,9.93
2018-05-26T03:47:42.921Z,9.30
2018-05-26T03:50:12.646Z,9.37
2018-05-26T03:52:42.259Z,9.10
2018-05-26T03:58:26.749Z,10.00
2018-05-26T04:00:56.073Z,10.87
2018-05-26T04:03:25.641Z,10.60
2018-05-26T04:05:55.250Z,10.73
2018-05-26T04:08:25.048Z,10.30
2018-05-26T04:10:54.837Z,10.83
2018-05-26T04:13:24.619Z,10.80
2018-05-26T04:15:54.235Z,10.77
2018-05-26T04:18:23.561Z,10.93
2018-05-26T04:20:53.135Z,10.80
2018-05-26T04:23:22.719Z,11.00
2018-05-26T04:25:52.295Z,10.00
2018-05-26T04:28:21.866Z,10.63
2018-05-26T04:30:51.454Z,11.40
2018-05-26T04:33:21.040Z,10.63
2018-05-26T04:35:50.854Z,11.47
2018-05-26T04:38:20.476Z,11.80
2018-05-26T04:40:50.038Z,10.90
2018-05-26T04:43:19.664Z,12.33
2018-05-26T04:45:49.320Z,10.60
2018-05-26T04:48:18.963Z,10.50
2018-05-26T04:50:48.529Z,9.97
2018-05-26T04:53:18.116Z,9.50
2018-05-26T04:55:47.688Z,9.50
2018-05-26T04:58:17.322Z,10.03
2018-05-26T05:00:46.899Z,9.50
2018-05-26T05:03:16.502Z,9.70
2018-05-26T05:05:46.081Z,9.50
2018-05-26T05:08:16.185Z,8.77
2018-05-26T05:10:45.751Z,9.23
2018-05-26T05:13:15.241Z,9.20
2018-05-26T05:15:44.794Z,10.00
2018-05-26T05:18:14.367Z,10.23
2018-05-26T05:20:43.951Z,11.33
2018-05-26T05:23:13.519Z,11.00
2018-05-26T05:25:43.158Z,10.57
2018-05-26T05:28:12.751Z,10.53
2018-05-26T05:30:42.131Z,11.67
2018-05-26T05:33:11.691Z,11.13
2018-05-26T05:35:41.279Z,11.70
2018-05-26T05:38:10.973Z,11.50
2018-05-26T05:40:40.291Z,12.43
2018-05-26T05:43:09.863Z,12.73
2018-05-26T05:45:39.427Z,12.33
2018-05-26T05:48:09.002Z,13.10
2018-05-26T05:50:38.693Z,12.37
2018-05-26T05:53:08.267Z,14.57
2018-05-26T05:55:37.837Z,12.93
2018-05-26T05:58:07.404Z,14.00
2018-05-26T06:00:36.986Z,13.57
2018-05-26T06:03:06.576Z,13.20
2018-05-26T06:05:36.166Z,13.73
2018-05-26T06:08:05.758Z,14.40
2018-05-26T06:10:35.336Z,12.67
2018-05-26T06:13:04.947Z,11.70
2018-05-26T06:15:34.515Z,12.70
2018-05-26T06:18:04.109Z,14.47
2018-05-26T06:20:33.703Z,13.77
2018-05-26T06:23:03.395Z,13.37
2018-05-26T06:25:33.137Z,14.33
2018-05-26T06:28:02.826Z,13.13
2018-05-26T06:30:32.397Z,13.23
2018-05-26T06:33:01.969Z,13.90
2018-05-26T06:35:31.550Z,12.87
2018-05-26T06:38:01.178Z,14.50
2018-05-26T06:40:30.718Z,13.90
2018-05-26T06:43:00.287Z,12.87
2018-05-26T06:45:29.898Z,12.67
2018-05-26T06:47:59.472Z,14.17
2018-05-26T06:50:29.083Z,12.67
2018-05-26T06:52:58.679Z,12.40
2018-05-26T06:55:28.276Z,14.33
2018-05-26T06:57:57.847Z,13.20
2018-05-26T07:00:27.555Z,13.80
2018-05-26T07:02:57.168Z,15.37
2018-05-26T07:05:26.739Z,13.50
2018-05-26T07:07:56.327Z,14.10
2018-05-26T07:10:25.905Z,12.77
2018-05-26T07:12:55.469Z,18.00
2018-05-26T07:15:25.376Z,14.97
2018-05-26T07:17:54.988Z,12.53
2018-05-26T07:20:24.650Z,13.67
2018-05-26T07:22:54.219Z,14.87
2018-05-26T07:25:23.813Z,13.47
2018-05-26T07:27:53.404Z,13.30
2018-05-26T07:30:23.163Z,14.37
2018-05-26T07:32:52.765Z,14.23
2018-05-26T07:35:22.342Z,18.53
2018-05-26T07:37:51.909Z,14.03
2018-05-26T07:40:21.515Z,14.20
2018-05-26T07:42:51.122Z,15.33
2018-05-26T07:45:20.743Z,13.60
2018-05-26T07:47:50.413Z,14.73
2018-05-26T07:50:19.988Z,15.00
2018-05-26T07:52:49.543Z,14.10
2018-05-26T07:55:19.268Z,14.97
2018-05-26T07:57:49.027Z,14.70
2018-05-26T08:00:18.657Z,15.27
2018-05-26T08:02:48.224Z,15.53
2018-05-26T08:05:17.791Z,13.93
2018-05-26T08:07:47.129Z,14.20
2018-05-26T08:10:16.705Z,15.43
2018-05-26T08:12:46.297Z,19.17
2018-05-26T08:15:15.944Z,27.00
2018-05-26T08:17:45.519Z,20.57
2018-05-26T08:20:15.119Z,16.47
2018-05-26T08:22:44.734Z,13.80
2018-05-26T08:25:14.295Z,15.30
2018-05-26T08:27:43.904Z,12.40
2018-05-26T08:30:13.477Z,12.17
2018-05-26T08:32:43.119Z,11.80
2018-05-26T08:35:12.706Z,13.23
2018-05-26T08:37:42.276Z,12.63
2018-05-26T08:40:11.843Z,12.73
2018-05-26T08:42:41.428Z,10.60
2018-05-26T08:45:11.017Z,11.67
2018-05-26T08:47:40.604Z,13.83
2018-05-26T08:50:10.211Z,11.43
2018-05-26T08:52:39.777Z,11.77
2018-05-26T08:55:09.358Z,12.83
2018-05-26T08:57:38.983Z,10.80
2018-05-26T09:00:08.547Z,9.53
2018-05-26T09:02:38.122Z,10.40
2018-05-26T09:05:07.716Z,10.93
2018-05-26T09:07:37.308Z,13.00
2018-05-26T09:10:06.886Z,12.77
2018-05-26T09:12:36.482Z,13.17
2018-05-26T09:15:06.104Z,13.70
2018-05-26T09:17:35.961Z,11.80
2018-05-26T09:20:05.554Z,10.40
2018-05-26T09:22:35.116Z,11.60
2018-05-26T09:25:04.742Z,11.27
2018-05-26T09:27:34.496Z,11.83
2018-05-26T09:30:04.102Z,10.70
2018-05-26T09:32:33.681Z,11.30
2018-05-26T09:35:03.268Z,10.93
2018-05-26T09:37:32.855Z,11.13
2018-05-26T09:40:02.454Z,9.57
2018-05-26T09:42:32.197Z,8.67
2018-05-26T09:45:01.757Z,8.77
2018-05-26T09:47:31.847Z,10.30
2018-05-26T09:50:01.425Z,9.67
2018-05-26T09:52:30.993Z,9.63
2018-05-26T09:55:01.417Z,10.30
2018-05-26T09:57:31.006Z,10.53
2018-05-26T10:00:00.575Z,8.33
2018-05-26T10:02:30.143Z,8.70
2018-05-26T10:04:59.707Z,6.97
2018-05-26T10:07:29.259Z,7.80
2018-05-26T10:09:58.859Z,6.57
2018-05-26T10:12:28.987Z,6.53
2018-05-26T10:14:58.542Z,6.40
2018-05-26T10:17:28.129Z,5.87
2018-05-26T10:19:57.733Z,6.10
2018-05-26T10:22:27.302Z,7.10
2018-05-26T10:24:56.862Z,6.33
2018-05-26T10:27:26.423Z,6.00
2018-05-26T10:29:56.036Z,5.30
2018-05-26T10:32:25.789Z,6.03
2018-05-26T10:34:55.344Z,5.77
2018-05-26T10:37:24.910Z,5.20
2018-05-26T10:39:54.597Z,4.93
2018-05-26T10:42:24.143Z,5.20
2018-05-26T10:44:53.448Z,5.50
2018-05-26T10:47:23.011Z,5.10
2018-05-26T10:49:52.579Z,5.07
2018-05-26T10:52:21.854Z,5.37
2018-05-26T10:54:51.155Z,4.93
2018-05-26T10:57:20.431Z,5.20
2018-05-26T10:59:49.729Z,4.40
2018-05-26T11:02:19.167Z,5.03
2018-05-26T11:04:48.448Z,6.10
2018-05-26T11:07:17.722Z,5.50
2018-05-26T11:09:47.051Z,4.93
2018-05-26T11:12:16.347Z,5.07
2018-05-26T11:14:45.604Z,5.50
2018-05-26T11:17:14.690Z,4.90
2018-05-26T11:19:43.980Z,4.43
2018-05-26T11:22:13.303Z,5.00
2018-05-26T11:24:42.927Z,5.57
2018-05-26T11:27:12.335Z,4.90
2018-05-26T11:29:41.617Z,4.73
2018-05-26T11:32:10.904Z,5.13
2018-05-26T11:34:40.194Z,5.40
2018-05-26T11:37:09.615Z,5.37
2018-05-26T11:39:38.899Z,5.30
2018-05-26T11:42:08.190Z,5.63
2018-05-26T11:44:37.455Z,6.20
2018-05-26T11:47:06.750Z,5.33
2018-05-26T11:49:36.036Z,5.40
2018-05-26T11:52:05.329Z,5.67
2018-05-26T11:54:34.620Z,5.73
2018-05-26T11:57:03.973Z,5.40
2018-05-26T11:59:33.387Z,5.50
2018-05-26T12:02:02.722Z,5.20
2018-05-26T12:04:32.283Z,5.63
2018-05-26T12:07:03.089Z,5.60
2018-05-26T12:09:32.440Z,4.63
2018-05-26T12:12:01.790Z,5.50
2018-05-26T12:14:31.074Z,5.00
2018-05-26T12:17:00.467Z,5.97
2018-05-26T12:19:29.754Z,5.57
2018-05-26T12:21:59.059Z,5.30
2018-05-26T12:24:28.334Z,5.97
2018-05-26T12:26:57.676Z,5.13
2018-05-26T12:29:27.271Z,5.73
2018-05-26T12:31:56.536Z,5.17
2018-05-26T12:34:25.842Z,5.60
2018-05-26T12:36:55.127Z,5.57
2018-05-26T12:39:24.403Z,5.23
2018-05-26T12:41:53.688Z,5.93
2018-05-26T12:44:22.980Z,5.10
2018-05-26T12:46:52.263Z,5.90
2018-05-26T12:49:21.550Z,5.27
2018-05-26T12:51:50.851Z,4.93
2018-05-26T12:54:20.131Z,5.33
2018-05-26T12:56:49.426Z,5.47
2018-05-26T12:59:18.744Z,5.10
2018-05-26T13:01:48.034Z,4.83
2018-05-26T13:04:17.312Z,4.93
2018-05-26T13:06:46.615Z,4.60
2018-05-26T13:09:15.896Z,4.80
2018-05-26T13:11:45.189Z,4.70
2018-05-26T13:14:14.483Z,5.40
2018-05-26T13:16:43.763Z,4.90
2018-05-26T13:19:13.100Z,5.20
2018-05-26T13:21:42.400Z,4.93
2018-05-26T13:24:11.683Z,5.30
2018-05-26T13:26:40.967Z,4.50
2018-05-26T13:29:10.401Z,5.00
2018-05-26T13:31:39.680Z,5.20
2018-05-26T13:34:08.970Z,5.10
2018-05-26T13:36:38.371Z,5.00
2018-05-26T13:39:07.638Z,4.83
2018-05-26T13:41:36.959Z,4.60
2018-05-26T13:44:06.530Z,4.97
2018-05-26T13:46:36.093Z,4.60
2018-05-26T13:49:05.645Z,5.10
2018-05-26T13:51:35.285Z,4.80
2018-05-26T13:54:04.976Z,4.80
2018-05-26T13:56:34.837Z,4.10
2018-05-26T13:59:04.595Z,4.73
2018-05-26T14:01:34.164Z,4.60
2018-05-26T14:04:03.729Z,5.10
2018-05-26T14:06:33.287Z,4.20
2018-05-26T14:09:02.664Z,4.20
2018-05-26T14:11:31.967Z,4.00
2018-05-26T14:14:01.567Z,4.87
2018-05-26T14:16:31.198Z,4.53
2018-05-26T14:19:00.751Z,3.90
2018-05-26T14:21:30.326Z,4.60
2018-05-26T14:23:59.875Z,4.90
2018-05-26T14:26:29.447Z,4.73
2018-05-26T14:28:59.023Z,4.13
2018-05-26T14:31:28.591Z,4.57
2018-05-26T14:33:58.139Z,4.30
2018-05-26T14:36:27.724Z,4.43
2018-05-26T14:38:57.279Z,4.07
2018-05-26T14:41:26.852Z,4.17
2018-05-26T14:43:59.242Z,4.07
2018-05-26T14:46:28.815Z,3.70
2018-05-26T14:48:58.370Z,4.20
2018-05-26T14:51:27.942Z,3.77
2018-05-26T14:53:57.535Z,3.70
2018-05-26T14:56:27.195Z,3.67
2018-05-26T14:58:56.780Z,3.73
2018-05-26T15:01:26.344Z,4.27
2018-05-26T15:03:55.886Z,3.53
2018-05-26T15:06:25.505Z,3.50
2018-05-26T15:08:55.052Z,3.50
2018-05-26T15:11:24.611Z,3.30
2018-05-26T15:13:54.186Z,3.63
2018-05-26T15:16:23.727Z,3.50
2018-05-26T15:18:53.282Z,3.27
2018-05-26T15:21:22.866Z,3.67
2018-05-26T15:23:52.625Z,3.20
2018-05-26T15:26:22.181Z,3.93
2018-05-26T15:28:51.755Z,3.60
2018-05-26T15:31:21.311Z,3.50
2018-05-26T15:33:50.883Z,3.60
2018-05-26T15:36:20.476Z,3.90
2018-05-26T15:38:50.030Z,4.00
2018-05-26T15:41:19.620Z,3.70
2018-05-26T15:43:49.196Z,3.63
2018-05-26T15:46:18.900Z,4.00
2018-05-26T15:48:48.669Z,3.90
2018-05-26T15:51:18.871Z,3.63
2018-05-26T15:53:48.471Z,4.03
2018-05-26T15:56:18.254Z,3.97
2018-05-26T15:58:47.826Z,4.20
2018-05-26T16:01:17.387Z,3.97
2018-05-26T16:03:46.964Z,4.10
2018-05-26T16:06:16.510Z,3.90
2018-05-26T16:08:46.073Z,3.50
2018-05-26T16:11:15.640Z,3.67
2018-05-26T16:13:45.206Z,3.70
2018-05-26T16:16:14.754Z,3.10
2018-05-26T16:18:44.331Z,3.60
2018-05-26T16:21:14.031Z,4.90
2018-05-26T16:23:43.681Z,3.73
2018-05-26T16:26:13.255Z,3.80
2018-05-26T16:28:42.814Z,3.57
2018-05-26T16:31:12.493Z,3.80
2018-05-26T16:33:42.232Z,3.67
2018-05-26T16:36:11.792Z,3.67
2018-05-26T16:38:41.346Z,3.83
2018-05-26T16:41:10.973Z,3.47
2018-05-26T16:43:40.528Z,3.37
2018-05-26T16:46:10.122Z,3.63
2018-05-26T16:48:39.690Z,4.00
2018-05-26T16:51:09.284Z,3.83
2018-05-26T16:53:39.012Z,4.50
2018-05-26T16:56:08.567Z,3.00
2018-05-26T16:58:38.133Z,3.33
2018-05-26T17:01:07.712Z,4.70
2018-05-26T17:03:37.276Z,3.70
2018-05-26T17:06:06.912Z,3.60
2018-05-26T17:08:36.496Z,3.57
2018-05-26T17:11:06.046Z,3.67
2018-05-26T17:13:35.586Z,3.37
2018-05-26T17:16:05.203Z,3.67
2018-05-26T17:18:34.763Z,3.40
2018-05-26T17:21:04.387Z,3.20
2018-05-26T17:23:33.986Z,3.80
2018-05-26T17:26:03.692Z,3.17
2018-05-26T17:28:34.903Z,3.83
2018-05-26T17:31:04.508Z,3.43
2018-05-26T17:33:34.098Z,3.70
2018-05-26T17:36:03.659Z,3.80
2018-05-26T17:38:33.204Z,3.90
2018-05-26T17:41:02.883Z,3.80
2018-05-26T17:43:32.431Z,4.13
2018-05-26T17:46:02.003Z,3.53
2018-05-26T17:48:31.581Z,4.70
2018-05-26T17:51:01.128Z,4.70
2018-05-26T17:53:30.698Z,4.37
2018-05-26T17:56:00.258Z,4.23
2018-05-26T17:58:29.820Z,4.23
2018-05-26T18:00:59.362Z,4.57
2018-05-26T18:03:28.937Z,4.23
2018-05-26T18:05:58.545Z,3.80
2018-05-26T18:08:28.217Z,4.30
2018-05-26T18:10:57.911Z,4.07
2018-05-26T18:13:27.475Z,4.60
2018-05-26T18:15:57.057Z,4.63
2018-05-26T18:18:26.629Z,4.67
2018-05-26T18:20:56.204Z,4.30
2018-05-26T18:23:25.828Z,4.90
2018-05-26T18:25:55.458Z,5.13
2018-05-26T18:28:25.202Z,4.67
2018-05-26T18:30:54.773Z,4.67
2018-05-26T18:33:24.357Z,5.40
2018-05-26T18:35:53.915Z,5.40
2018-05-26T18:38:23.481Z,5.33
2018-05-26T18:40:53.308Z,5.50
2018-05-26T18:43:22.915Z,6.20
2018-05-26T18:45:52.520Z,5.70
2018-05-26T18:48:22.252Z,5.23
2018-05-26T18:50:51.833Z,5.73
2018-05-26T18:53:21.396Z,5.90
2018-05-26T18:55:51.027Z,5.20
2018-05-26T18:58:20.634Z,5.63
2018-05-26T19:00:50.281Z,5.20
2018-05-26T19:03:20.014Z,5.67
2018-05-26T19:05:49.848Z,6.33
2018-05-26T19:08:19.406Z,5.57
2018-05-26T19:10:49.033Z,5.73
2018-05-26T19:13:18.717Z,5.30
2018-05-26T19:15:48.311Z,5.70
2018-05-26T19:18:18.090Z,6.37
2018-05-26T19:20:47.654Z,6.67
2018-05-26T19:23:17.262Z,5.83
2018-05-26T19:25:46.971Z,5.67
2018-05-26T19:28:17.144Z,5.40
2018-05-26T19:30:46.730Z,5.27
2018-05-26T19:33:16.319Z,5.23
2018-05-26T19:35:45.873Z,5.07
2018-05-26T19:38:15.437Z,5.40
2018-05-26T19:40:45.005Z,5.40
2018-05-26T19:43:14.560Z,7.00
2018-05-26T19:45:44.131Z,11.03
2018-05-26T19:48:13.718Z,8.93
2018-05-26T19:50:43.300Z,12.03
2018-05-26T19:53:13.163Z,24.90
2018-05-26T19:55:42.770Z,10.27
2018-05-26T19:58:12.346Z,110.00
2018-05-26T20:00:41.915Z,41.80
2018-05-26T20:03:11.500Z,63.87
2018-05-26T20:05:41.106Z,268.03
2018-05-26T20:08:10.705Z,118.73
2018-05-26T20:10:40.289Z,54.13
2018-05-26T20:13:09.884Z,15.47
2018-05-26T20:15:39.473Z,290.97
2018-05-26T20:18:09.159Z,397.67
2018-05-26T20:20:38.736Z,258.70
2018-05-26T20:23:08.342Z,319.30
2018-05-26T20:25:37.990Z,337.97
2018-05-26T20:28:07.581Z,239.90
2018-05-26T20:30:37.219Z,75.63
2018-05-26T20:33:06.787Z,31.20
2018-05-26T20:35:36.355Z,18.40
2018-05-26T20:38:05.934Z,14.80
2018-05-26T20:40:35.527Z,17.90
2018-05-26T20:43:05.096Z,14.23
2018-05-26T20:45:34.726Z,12.53
2018-05-26T20:48:04.305Z,8.90
2018-05-26T20:50:33.901Z,8.93
2018-05-26T20:53:03.588Z,7.40
2018-05-26T20:55:33.171Z,8.00
2018-05-26T20:58:02.717Z,8.70
2018-05-26T21:00:32.268Z,7.00
2018-05-26T21:03:01.867Z,7.20
2018-05-26T21:05:31.442Z,6.80
2018-05-26T21:08:01.596Z,6.37
2018-05-26T21:10:31.164Z,5.50
2018-05-26T21:13:00.851Z,5.30
2018-05-26T21:15:30.392Z,6.07
2018-05-26T21:17:59.993Z,5.50
2018-05-26T21:20:29.540Z,6.10
2018-05-26T21:22:59.093Z,6.43
2018-05-26T21:25:28.659Z,6.90
2018-05-26T21:27:58.218Z,6.20
2018-05-26T21:30:27.762Z,6.53
2018-05-26T21:32:57.374Z,9.13
2018-05-26T21:35:26.947Z,8.67
2018-05-26T21:37:56.510Z,8.70
2018-05-26T21:40:31.488Z,9.20
2018-05-26T21:43:01.055Z,10.27
2018-05-26T21:45:30.622Z,9.50
2018-05-26T21:47:59.947Z,9.53
2018-05-26T21:50:29.501Z,9.63
2018-05-26T21:52:59.070Z,9.17
2018-05-26T21:55:28.652Z,9.60
2018-05-26T21:57:58.269Z,8.80
2018-05-26T22:00:27.982Z,9.60
2018-05-26T22:02:57.306Z,8.40
2018-05-26T22:05:26.874Z,8.70
2018-05-26T22:07:56.450Z,7.77
2018-05-26T22:10:26.023Z,8.93
2018-05-26T22:12:55.379Z,8.60
2018-05-26T22:15:25.132Z,7.90
2018-05-26T22:17:54.743Z,8.10
2018-05-26T22:20:24.310Z,7.80
2018-05-26T22:22:53.862Z,7.27
2018-05-26T22:25:23.489Z,7.40
2018-05-26T22:27:53.072Z,7.73
2018-05-26T22:30:22.634Z,7.93
2018-05-26T22:32:52.210Z,7.10
2018-05-26T22:35:21.795Z,7.37
2018-05-26T22:37:51.361Z,7.33
2018-05-26T22:40:21.070Z,7.20
2018-05-26T22:42:50.378Z,8.10
2018-05-26T22:45:20.053Z,7.40
2018-05-26T22:47:49.718Z,6.90
2018-05-26T22:50:19.319Z,7.67
2018-05-26T22:52:48.887Z,8.37
2018-05-26T22:55:19.295Z,7.23
2018-05-26T22:57:48.841Z,7.57
2018-05-26T23:00:18.246Z,6.83
2018-05-26T23:02:47.270Z,7.97
2018-05-26T23:05:16.837Z,7.87
2018-05-26T23:07:46.387Z,8.30
2018-05-26T23:10:15.996Z,7.70
2018-05-26T23:12:45.560Z,7.83
2018-05-26T23:15:15.173Z,8.67
2018-05-26T23:17:44.758Z,8.43
2018-05-26T23:20:14.328Z,7.90
2018-05-26T23:22:43.888Z,8.40
2018-05-26T23:25:13.458Z,8.10
2018-05-26T23:27:43.015Z,8.87
2018-05-26T23:30:12.582Z,8.40
2018-05-26T23:32:42.441Z,7.50
2018-05-26T23:35:11.751Z,8.13
2018-05-26T23:37:41.303Z,9.17
2018-05-26T23:40:10.863Z,7.70
2018-05-26T23:42:40.416Z,8.50
2018-05-26T23:45:09.985Z,7.83
2018-05-26T23:47:39.555Z,7.60
2018-05-26T23:50:09.132Z,8.97
2018-05-26T23:52:38.705Z,9.63
2018-05-26T23:55:08.285Z,8.47
2018-05-26T23:57:37.863Z,8.97
